Time,TemperatureF,DewpointF,PressureIn,WindDirection,WindDirectionDegrees,WindSpeedMPH,WindSpeedGustMPH,Humidity,HourlyPrecipIn,Conditions,Clouds,dailyrainin,SoftwareType,DateUTC
2013-06-01 00:02:00,77.0,74.0,29.78,South,173,0.0,4.0,89,0.00,,,0.35,,2013-06-01 05:02:00,
2013-06-01 00:12:00,77.0,74.0,29.78,South,173,0.0,4.0,89,0.00,,,0.35,,2013-06-01 05:12:00,
2013-06-01 00:22:00,77.0,74.0,29.77,SE,129,1.0,2.0,89,0.00,,,0.35,,2013-06-01 05:22:00,
2013-06-01 00:32:00,77.0,74.0,29.75,SE,136,1.0,6.0,89,0.00,,,0.35,,2013-06-01 05:32:00,
2013-06-01 00:42:00,77.0,74.0,29.76,SSE,149,1.0,3.0,89,0.00,,,0.35,,2013-06-01 05:42:00,
2013-06-01 00:52:00,77.0,74.0,29.76,SSE,149,1.0,3.0,89,0.00,,,0.35,,2013-06-01 05:52:00,
2013-06-01 01:01:00,77.0,74.0,29.76,SSE,159,2.0,5.0,89,0.00,,,0.35,,2013-06-01 06:01:00,
2013-06-01 01:12:00,77.0,74.0,29.76,SSE,150,1.0,3.0,89,0.00,,,0.35,,2013-06-01 06:12:00,
2013-06-01 01:22:00,77.0,74.0,29.76,SSE,150,1.0,3.0,89,0.00,,,0.35,,2013-06-01 06:22:00,
2013-06-01 01:32:00,77.0,74.0,29.76,SE,132,2.0,5.0,89,0.00,,,0.35,,2013-06-01 06:32:00,
2013-06-01 01:42:00,78.0,74.0,29.73,SSE,167,4.0,7.0,88,0.00,,,0.35,,2013-06-01 06:42:00,
2013-06-01 01:52:00,78.0,74.0,29.73,SSE,167,4.0,7.0,88,0.00,,,0.35,,2013-06-01 06:52:00,
2013-06-01 02:01:00,77.0,73.0,29.72,SSE,150,6.0,9.0,88,0.00,,,0.35,,2013-06-01 07:01:00,
2013-06-01 02:11:00,77.0,73.0,29.72,SSE,150,6.0,9.0,88,0.00,,,0.35,,2013-06-01 07:11:00,
2013-06-01 02:21:00,77.0,74.0,29.70,SE,132,3.0,10.0,90,0.00,,,0.35,,2013-06-01 07:21:00,
2013-06-01 02:31:00,77.0,74.0,29.71,SSW,207,4.0,12.0,90,0.00,,,0.00,,2013-06-01 07:31:00,
2013-06-01 02:42:00,77.0,74.0,29.72,WSW,238,4.0,12.0,90,0.00,,,0.00,,2013-06-01 07:42:00,
2013-06-01 02:52:00,77.0,74.0,29.72,WSW,238,4.0,12.0,90,0.00,,,0.00,,2013-06-01 07:52:00,
2013-06-01 03:02:00,77.0,74.0,29.72,South,172,4.0,9.0,89,0.00,,,0.00,,2013-06-01 08:02:00,
2013-06-01 03:11:00,77.0,73.0,29.72,SSW,212,3.0,10.0,88,0.00,,,0.00,,2013-06-01 08:11:00,
2013-06-01 03:21:00,77.0,73.0,29.72,SSW,212,3.0,10.0,88,0.00,,,0.00,,2013-06-01 08:21:00,
2013-06-01 03:32:00,77.0,73.0,29.72,South,176,2.0,6.0,88,0.00,,,0.00,,2013-06-01 08:32:00,
2013-06-01 03:42:00,77.0,73.0,29.73,SE,127,2.0,8.0,88,0.00,,,0.00,,2013-06-01 08:42:00,
2013-06-01 03:52:00,77.0,73.0,29.73,SE,127,2.0,8.0,88,0.00,,,0.00,,2013-06-01 08:52:00,
2013-06-01 04:01:00,77.0,73.0,29.72,SSE,155,2.0,10.0,88,0.00,,,0.00,,2013-06-01 09:01:00,
2013-06-01 04:12:00,77.0,73.0,29.72,SSE,155,2.0,10.0,88,0.00,,,0.00,,2013-06-01 09:12:00,
2013-06-01 04:21:00,74.0,68.0,29.77,NW,320,14.0,29.0,81,0.07,,,0.07,,2013-06-01 09:21:00,
2013-06-01 04:33:00,66.0,64.0,29.74,WNW,297,2.0,21.0,92,0.36,,,0.36,,2013-06-01 09:33:00,
2013-06-01 04:42:00,66.0,64.0,29.74,WNW,297,2.0,21.0,92,0.36,,,0.36,,2013-06-01 09:42:00,
2013-06-01 04:53:00,66.0,64.0,29.75,SSE,152,1.0,6.0,93,0.40,,,0.40,,2013-06-01 09:53:00,
2013-06-01 05:02:00,65.0,64.0,29.76,WNW,283,4.0,9.0,95,0.45,,,0.45,,2013-06-01 10:02:00,
2013-06-01 05:13:00,65.0,64.0,29.76,WNW,283,4.0,9.0,95,0.45,,,0.45,,2013-06-01 10:13:00,
2013-06-01 05:22:00,65.0,64.0,29.76,WSW,240,1.0,8.0,95,0.40,,,0.48,,2013-06-01 10:22:00,
2013-06-01 05:33:00,65.0,64.0,29.79,South,179,1.0,6.0,95,0.14,,,0.50,,2013-06-01 10:33:00,
2013-06-01 05:42:00,65.0,64.0,29.79,South,179,1.0,6.0,95,0.14,,,0.50,,2013-06-01 10:42:00,
2013-06-01 05:52:00,65.0,64.0,29.78,WSW,239,0.0,3.0,95,0.13,,,0.53,,2013-06-01 10:52:00,
2013-06-01 06:02:00,65.0,64.0,29.78,South,173,0.0,2.0,96,0.10,,,0.55,,2013-06-01 11:02:00,
2013-06-01 06:11:00,65.0,64.0,29.78,South,173,0.0,2.0,96,0.10,,,0.55,,2013-06-01 11:11:00,
2013-06-01 06:21:00,65.0,64.0,29.77,East,99,0.0,1.0,96,0.10,,,0.57,,2013-06-01 11:21:00,
2013-06-01 06:32:00,65.0,64.0,29.78,ESE,111,1.0,3.0,96,0.08,,,0.57,,2013-06-01 11:32:00,
2013-06-01 06:42:00,65.0,64.0,29.78,ESE,111,1.0,3.0,96,0.08,,,0.57,,2013-06-01 11:42:00,
2013-06-01 06:52:00,65.0,64.0,29.82,SSW,205,1.0,6.0,97,0.15,,,0.68,,2013-06-01 11:52:00,
2013-06-01 07:01:00,65.0,64.0,29.83,West,279,0.0,6.0,97,0.18,,,0.73,,2013-06-01 12:01:00,
2013-06-01 07:12:00,65.0,64.0,29.83,West,279,0.0,6.0,97,0.18,,,0.73,,2013-06-01 12:12:00,
2013-06-01 07:21:00,65.0,64.0,29.82,West,270,0.0,4.0,97,0.18,,,0.76,,2013-06-01 12:21:00,
2013-06-01 07:32:00,65.0,64.0,29.83,West,278,0.0,2.0,97,0.24,,,0.82,,2013-06-01 12:32:00,
2013-06-01 07:42:00,65.0,64.0,29.85,WNW,291,0.0,2.0,96,0.18,,,0.86,,2013-06-01 12:42:00,
2013-06-01 07:52:00,65.0,64.0,29.85,WNW,291,0.0,2.0,96,0.18,,,0.86,,2013-06-01 12:52:00,
2013-06-01 08:01:00,65.0,64.0,29.89,South,186,1.0,2.0,97,0.16,,,0.89,,2013-06-01 13:01:00,
2013-06-01 08:11:00,65.0,64.0,29.89,South,186,1.0,2.0,97,0.16,,,0.89,,2013-06-01 13:11:00,
2013-06-01 08:22:00,65.0,64.0,29.86,SSE,167,1.0,3.0,97,0.25,,,1.02,,2013-06-01 13:22:00,
2013-06-01 08:32:00,65.0,64.0,29.83,NNE,28,0.0,2.0,97,0.23,,,1.05,,2013-06-01 13:32:00,
2013-06-01 08:42:00,65.0,64.0,29.83,SE,126,0.0,1.0,97,0.21,,,1.08,,2013-06-01 13:42:00,
2013-06-01 08:52:00,65.0,64.0,29.83,SE,126,0.0,1.0,97,0.21,,,1.08,,2013-06-01 13:52:00,
2013-06-01 09:02:00,65.0,64.0,29.83,SSE,165,2.0,7.0,97,0.21,,,1.11,,2013-06-01 14:02:00,
2013-06-01 09:11:00,65.0,64.0,29.83,SSE,165,2.0,7.0,97,0.21,,,1.11,,2013-06-01 14:11:00,
2013-06-01 09:21:00,65.0,64.0,29.80,ESE,107,4.0,8.0,97,0.15,,,1.17,,2013-06-01 14:21:00,
2013-06-01 09:32:00,65.0,64.0,29.78,South,186,3.0,11.0,97,0.16,,,1.21,,2013-06-01 14:32:00,
2013-06-01 09:42:00,65.0,64.0,29.78,South,186,3.0,11.0,97,0.16,,,1.21,,2013-06-01 14:42:00,
2013-06-01 09:52:00,64.0,63.0,29.76,SSE,150,4.0,7.0,97,0.16,,,1.24,,2013-06-01 14:52:00,
2013-06-01 10:02:00,64.0,63.0,29.77,SSE,153,6.0,13.0,97,0.15,,,1.26,,2013-06-01 15:02:00,
2013-06-01 10:11:00,64.0,63.0,29.77,SSE,153,6.0,13.0,97,0.15,,,1.26,,2013-06-01 15:11:00,
2013-06-01 10:21:00,64.0,63.0,29.75,ENE,71,4.0,16.0,97,0.12,,,1.29,,2013-06-01 15:21:00,
2013-06-01 10:33:00,64.0,63.0,29.73,SSE,148,8.0,21.0,97,0.11,,,1.32,,2013-06-01 15:33:00,
2013-06-01 10:43:00,64.0,63.0,29.73,SSE,148,8.0,21.0,97,0.11,,,1.32,,2013-06-01 15:43:00,
2013-06-01 10:53:00,64.0,63.0,29.67,East,101,10.0,21.0,97,0.11,,,1.35,,2013-06-01 15:53:00,
2013-06-01 11:03:00,65.0,64.0,29.72,South,172,3.0,17.0,96,0.09,,,1.35,,2013-06-01 16:03:00,
2013-06-01 11:12:00,65.0,64.0,29.72,South,172,3.0,17.0,96,0.09,,,1.35,,2013-06-01 16:12:00,
2013-06-01 11:23:00,65.0,64.0,29.80,SW,232,4.0,9.0,96,0.06,,,1.35,,2013-06-01 16:23:00,
2013-06-01 11:33:00,65.0,64.0,29.80,SW,228,0.0,5.0,96,0.03,,,1.35,,2013-06-01 16:33:00,
2013-06-01 11:42:00,65.0,64.0,29.83,West,270,1.0,3.0,96,0.00,,,1.35,,2013-06-01 16:42:00,
2013-06-01 11:52:00,65.0,64.0,29.83,West,270,1.0,3.0,96,0.00,,,1.35,,2013-06-01 16:52:00,
2013-06-01 12:02:00,65.0,64.0,29.82,SSW,193,0.0,3.0,97,0.00,,,1.35,,2013-06-01 17:02:00,
2013-06-01 12:12:00,65.0,64.0,29.82,SSW,193,0.0,3.0,97,0.00,,,1.35,,2013-06-01 17:12:00,
2013-06-01 12:22:00,65.0,64.0,29.83,WNW,283,0.0,3.0,96,0.00,,,1.35,,2013-06-01 17:22:00,
2013-06-01 12:32:00,66.0,65.0,29.84,West,281,2.0,4.0,95,0.00,,,1.35,,2013-06-01 17:32:00,
2013-06-01 12:42:00,66.0,65.0,29.84,West,281,2.0,4.0,95,0.00,,,1.35,,2013-06-01 17:42:00,
2013-06-01 12:52:00,67.0,66.0,29.83,SSW,211,1.0,4.0,95,0.00,,,1.35,,2013-06-01 17:52:00,
2013-06-01 13:01:00,67.0,65.0,29.85,West,268,3.0,6.0,93,0.00,,,1.35,,2013-06-01 18:01:00,
2013-06-01 13:12:00,67.0,65.0,29.85,West,268,3.0,6.0,93,0.00,,,1.35,,2013-06-01 18:12:00,
2013-06-01 13:21:00,67.0,65.0,29.85,WSW,243,1.0,5.0,94,0.00,,,1.35,,2013-06-01 18:21:00,
2013-06-01 13:32:00,67.0,65.0,29.85,SW,232,2.0,5.0,93,0.00,,,1.35,,2013-06-01 18:32:00,
2013-06-01 13:42:00,67.0,65.0,29.85,SW,232,2.0,5.0,93,0.00,,,1.35,,2013-06-01 18:42:00,
2013-06-01 13:51:00,67.0,65.0,29.85,South,190,2.0,6.0,93,0.00,,,1.35,,2013-06-01 18:51:00,
2013-06-01 14:02:00,68.0,66.0,29.86,WSW,240,2.0,10.0,92,0.00,,,1.35,,2013-06-01 19:02:00,
2013-06-01 14:11:00,68.0,66.0,29.86,SSW,204,3.0,8.0,92,0.00,,,1.35,,2013-06-01 19:11:00,
2013-06-01 14:21:00,68.0,66.0,29.86,SSW,204,3.0,8.0,92,0.00,,,1.35,,2013-06-01 19:21:00,
2013-06-01 14:32:00,69.0,66.0,29.86,SSW,212,4.0,7.0,90,0.00,,,1.35,,2013-06-01 19:32:00,
2013-06-01 14:42:00,69.0,66.0,29.86,SSW,212,4.0,7.0,90,0.00,,,1.35,,2013-06-01 19:42:00,
2013-06-01 14:52:00,70.0,67.0,29.86,SSW,208,2.0,6.0,90,0.00,,,1.35,,2013-06-01 19:52:00,
2013-06-01 15:01:00,70.0,66.0,29.86,SSW,207,5.0,10.0,87,0.00,,,1.35,,2013-06-01 20:01:00,
2013-06-01 15:12:00,70.0,66.0,29.86,SSW,207,5.0,10.0,87,0.00,,,1.35,,2013-06-01 20:12:00,
2013-06-01 15:21:00,71.0,66.0,29.84,WSW,250,3.0,8.0,85,0.00,,,1.35,,2013-06-01 20:21:00,
2013-06-01 15:32:00,72.0,67.0,29.85,SW,217,6.0,11.0,83,0.00,,,1.35,,2013-06-01 20:32:00,
2013-06-01 15:41:00,73.0,68.0,29.85,SSW,204,2.0,10.0,83,0.00,,,1.35,,2013-06-01 20:41:00,
2013-06-01 15:52:00,73.0,68.0,29.85,SSW,204,2.0,10.0,83,0.00,,,1.35,,2013-06-01 20:52:00,
2013-06-01 16:01:00,72.0,66.0,29.85,SW,232,3.0,9.0,82,0.00,,,1.35,,2013-06-01 21:01:00,
2013-06-01 16:11:00,72.0,66.0,29.84,SSW,205,3.0,7.0,82,0.00,,,1.35,,2013-06-01 21:11:00,
2013-06-01 16:21:00,72.0,66.0,29.84,SSW,205,3.0,7.0,82,0.00,,,1.35,,2013-06-01 21:21:00,
2013-06-01 16:33:00,72.0,66.0,29.84,SSW,195,5.0,10.0,81,0.00,,,1.35,,2013-06-01 21:33:00,
2013-06-01 16:42:00,72.0,66.0,29.84,SSW,195,5.0,10.0,81,0.00,,,1.35,,2013-06-01 21:42:00,
2013-06-01 16:53:00,73.0,66.0,29.83,SW,222,5.0,11.0,79,0.00,,,1.35,,2013-06-01 21:53:00,
2013-06-01 17:03:00,73.0,66.0,29.83,SW,214,4.0,8.0,79,0.00,,,1.35,,2013-06-01 22:03:00,
2013-06-01 17:12:00,73.0,66.0,29.83,SW,226,5.0,11.0,80,0.00,,,1.35,,2013-06-01 22:12:00,
2013-06-01 17:23:00,73.0,66.0,29.83,SW,226,5.0,11.0,80,0.00,,,1.35,,2013-06-01 22:23:00,
2013-06-01 17:33:00,73.0,66.0,29.83,SSW,195,3.0,7.0,78,0.00,,,1.35,,2013-06-01 22:33:00,
2013-06-01 17:42:00,73.0,66.0,29.83,WSW,242,0.0,7.0,79,0.00,,,1.35,,2013-06-01 22:42:00,
2013-06-01 17:53:00,73.0,66.0,29.83,WSW,242,0.0,7.0,79,0.00,,,1.35,,2013-06-01 22:53:00,
2013-06-01 18:02:00,73.0,66.0,29.83,South,180,0.0,6.0,79,0.00,,,1.35,,2013-06-01 23:02:00,
2013-06-01 18:11:00,73.0,66.0,29.82,SW,222,2.0,6.0,79,0.00,,,1.35,,2013-06-01 23:11:00,
2013-06-01 18:22:00,73.0,66.0,29.82,SW,222,2.0,6.0,79,0.00,,,1.35,,2013-06-01 23:22:00,
2013-06-01 18:32:00,73.0,66.0,29.82,SW,231,4.0,8.0,80,0.00,,,1.35,,2013-06-01 23:32:00,
2013-06-01 18:42:00,73.0,66.0,29.82,SW,231,4.0,8.0,80,0.00,,,1.35,,2013-06-01 23:42:00,
2013-06-01 18:52:00,74.0,67.0,29.82,SSW,201,0.0,4.0,80,0.00,,,1.35,,2013-06-01 23:52:00,
2013-06-01 19:02:00,74.0,67.0,29.82,SW,219,2.0,6.0,79,0.00,,,1.35,,2013-06-02 00:02:00,
2013-06-01 19:11:00,74.0,67.0,29.82,SW,219,2.0,6.0,79,0.00,,,1.35,,2013-06-02 00:11:00,
2013-06-01 19:21:00,74.0,67.0,29.82,SSW,210,2.0,6.0,80,0.00,,,1.35,,2013-06-02 00:21:00,
2013-06-01 19:32:00,74.0,67.0,29.83,SW,228,1.0,6.0,80,0.00,,,1.35,,2013-06-02 00:32:00,
2013-06-01 19:41:00,74.0,67.0,29.83,SW,228,1.0,6.0,80,0.00,,,1.35,,2013-06-02 00:41:00,
2013-06-01 19:51:00,74.0,68.0,29.83,SSE,165,1.0,7.0,81,0.00,,,1.35,,2013-06-02 00:51:00,
2013-06-01 20:01:00,73.0,67.0,29.83,SE,131,2.0,5.0,82,0.00,,,1.35,,2013-06-02 01:01:00,
2013-06-01 20:11:00,73.0,67.0,29.83,SE,131,2.0,5.0,82,0.00,,,1.35,,2013-06-02 01:11:00,
2013-06-01 20:21:00,72.0,67.0,29.84,SSW,196,1.0,6.0,85,0.00,,,1.35,,2013-06-02 01:21:00,
2013-06-01 20:32:00,71.0,67.0,29.84,SSW,205,0.0,2.0,87,0.00,,,1.35,,2013-06-02 01:32:00,
2013-06-01 20:41:00,71.0,67.0,29.84,SSW,205,0.0,2.0,87,0.00,,,1.35,,2013-06-02 01:41:00,
2013-06-01 20:52:00,70.0,67.0,29.85,SW,221,0.0,2.0,90,0.00,,,1.35,,2013-06-02 01:52:00,
2013-06-01 21:01:00,69.0,66.0,29.85,SE,128,0.0,0.0,91,0.00,,,1.35,,2013-06-02 02:01:00,
2013-06-01 21:12:00,69.0,66.0,29.85,SE,128,0.0,0.0,91,0.00,,,1.35,,2013-06-02 02:12:00,
2013-06-01 21:21:00,68.0,66.0,29.85,SE,141,0.0,0.0,93,0.00,,,1.35,,2013-06-02 02:21:00,
2013-06-01 21:32:00,68.0,66.0,29.86,SSE,149,0.0,1.0,94,0.00,,,1.35,,2013-06-02 02:32:00,
2013-06-01 21:41:00,68.0,66.0,29.86,SSE,149,0.0,1.0,94,0.00,,,1.35,,2013-06-02 02:41:00,
2013-06-01 21:51:00,68.0,66.0,29.86,NE,39,0.0,3.0,94,0.00,,,1.35,,2013-06-02 02:51:00,
2013-06-01 22:02:00,68.0,66.0,29.87,NE,40,0.0,0.0,94,0.00,,,1.35,,2013-06-02 03:02:00,
2013-06-01 22:11:00,68.0,66.0,29.87,NE,40,0.0,0.0,94,0.00,,,1.35,,2013-06-02 03:11:00,
2013-06-01 22:21:00,67.0,66.0,29.88,NE,39,0.0,0.0,95,0.00,,,1.35,,2013-06-02 03:21:00,
2013-06-01 22:33:00,68.0,64.0,29.89,WNW,295,1.0,5.0,87,0.00,,,1.35,,2013-06-02 03:33:00,
2013-06-01 22:43:00,68.0,64.0,29.89,WNW,295,1.0,5.0,87,0.00,,,1.35,,2013-06-02 03:43:00,
2013-06-01 22:52:00,69.0,62.0,29.89,NW,311,1.0,6.0,79,0.00,,,1.35,,2013-06-02 03:52:00,
2013-06-01 23:02:00,68.0,61.0,29.90,WNW,297,1.0,4.0,79,0.00,,,1.35,,2013-06-02 04:02:00,
2013-06-01 23:13:00,68.0,61.0,29.90,WNW,297,1.0,4.0,79,0.00,,,1.35,,2013-06-02 04:13:00,
2013-06-01 23:23:00,67.0,61.0,29.90,NW,317,0.0,3.0,80,0.00,,,1.35,,2013-06-02 04:23:00,
2013-06-01 23:33:00,67.0,61.0,29.91,NW,304,0.0,2.0,80,0.00,,,1.35,,2013-06-02 04:33:00,
2013-06-01 23:42:00,67.0,61.0,29.91,NW,304,0.0,2.0,80,0.00,,,1.35,,2013-06-02 04:42:00,
2013-06-01 23:53:00,66.0,60.0,29.91,WNW,289,0.0,1.0,81,0.00,,,1.35,,2013-06-02 04:53:00,